Fish Haven, Idaho
Current Conditions -  °F | °C
As of 12:51 PM on Friday 19 Dec 2014 (Local Time) from KLGU Reporting Station
Overcast Overcast  
Wind Chill: 41°   Ceiling: 7500
Heat Index: 41°   Visibility: 10mi
Dew Point: 28°   Wind: 3mph
Humidity: 60%   Direction: 350°N
Pressure: 30.13"   Gusts: NA
Location:  42.04°N, 111.4°W
Report Text: KLGU 191951Z AUTO 35003KT 10SM BKN075 OVC100 05/M02 A3013 RMK AO2 SLP217 T00501022
Loading
Personal Weather Stations






























Interactive Weather Map New forecast layout! Learn more

10-Day Weather Forecast

Advertisements
Track Severe Weather on mobile